• Join FlightAware (Why Join?)
  • Login
  • US Flag GB Flag 
19:34 EDT


 

Airport Tracker/Info


-or-


 

Live Flight TrackerFlight Track Log ✈ N500NM ✈ 27-Mar-2014 ✈ KMOB - KMOB

Flight Track Log - Related Links

Times and Time Zones

All times are in EDT time to prevent confusion due to time zone crossing. See the N500NM flight status page for this flight to view local times or setup timezone preferences in your user account.

Time Position Orientation Groundspeed Altitude Reporting Facility
EDT Latitude Longitude Course Direction KTS MPH feet Rate Location/Type
13:51 30.6347 -88.2269 300° West 97 112 2,600  Level Houston Center
13:52 30.6261 -88.2614 254° West 120 138 3,600 960 Climbing Houston Center
13:53 30.6600 -88.2950 320° Northwest 133 153 4,700 960 Climbing Houston Center
13:54 30.7806 -88.4714 297° West  Level FlightAware Approximate
13:54 30.6850 -88.3306 309° West 142 163 5,600  Level Houston Center
13:55 30.8009 -88.5185 300° West  Level FlightAware Approximate
13:55 30.7036 -88.3689 299° West 141 162 6,500  Level Houston Center
13:56 30.8237 -88.5641 300° West  Level FlightAware Approximate
13:56 30.7203 -88.4067 297° West 136 157 7,300  Level Houston Center
13:57 30.7381 -88.4458 298° West 135 155 8,100 720 Climbing Houston Center
13:58 30.7553 -88.4850 297° West 135 155 8,900 720 Climbing Houston Center
13:59 30.7747 -88.5289 297° West 134 154 9,700 720 Climbing Houston Center
14:00 30.7908 -88.5650 297° West 130 150 10,500 720 Climbing Houston Center
14:01 30.8072 -88.6006 298° West 130 150 11,300 660 Climbing Houston Center
14:02 30.8228 -88.6361 297° West 128 147 11,900 540 Climbing Houston Center
14:03 30.8386 -88.6719 297° West 127 146 12,500 600 Climbing Houston Center
14:04 30.8550 -88.7083 298° West 127 146 13,200 660 Climbing Houston Center
14:05 30.8753 -88.7528 298° West 128 147 13,900 600 Climbing Houston Center
14:06 30.8922 -88.7906 298° West 128 147 14,500 540 Climbing Houston Center
14:07 30.9086 -88.8286 297° West 129 148 15,100 540 Climbing Houston Center
14:08 30.9261 -88.8672 298° West 130 150 15,700 660 Climbing Houston Center
14:09 30.9428 -88.9058 297° West 133 153 16,500 840 Climbing Houston Center
14:10 30.9631 -88.9478 299° West 131 151 17,500 720 Climbing Houston Center
14:11 30.9756 -88.9789 295° West 116 133 18,100 720 Climbing Houston Center
14:12 30.9889 -89.0100 297° West 110 127 19,000 720 Climbing Houston Center
14:13 31.0047 -89.0425 300° West 112 129 19,700 600 Climbing Houston Center
14:14 31.0192 -89.0778 296° West 118 136 20,300 600 Climbing Houston Center
14:15 31.0383 -89.1194 298° West 121 139 21,000 660 Climbing Houston Center
14:16 31.0536 -89.1558 296° West 124 143 21,700 480 Climbing Houston Center
14:17 31.0697 -89.1914 298° West 124 143 22,000 120 Climbing Houston Center
14:19 31.0881 -89.2342 297° West 143 165 22,000  Level Houston Center
14:20 31.1081 -89.2794 297° West 152 175 22,000  Level Houston Center
14:21 31.1397 -89.3517 297° West 152 175 22,000  Level Memphis Center
14:22 31.1508 -89.3769 297° West 154 177 22,000  Level Houston Center
14:23 31.1708 -89.4208 298° West 154 177 22,000  Level Houston Center
14:24 31.1900 -89.4653 297° West 154 177 22,000  Level Houston Center
14:25 31.2092 -89.5100 297° West 155 178 22,000  Level Houston Center
14:26 31.2325 -89.5633 297° West 154 177 22,000  Level Houston Center
14:27 31.2525 -89.6089 297° West 156 180 22,000  Level Houston Center
14:28 31.2722 -89.6542 297° West 156 180 22,000  Level Houston Center
14:29 31.2914 -89.6997 296° West 157 181 22,000  Level Houston Center
14:30 31.3117 -89.7439 298° West 156 180 22,000  Level Houston Center
14:31 31.3311 -89.7892 297° West 156 180 22,000  Level Houston Center
14:32 31.3542 -89.8425 297° West 155 178 22,000  Level Houston Center
14:33 31.3733 -89.8872 297° West 157 181 22,000  Level Houston Center
14:34 31.3922 -89.9328 296° West 156 180 22,000  Level Houston Center
14:35 31.4119 -89.9772 297° West 155 178 22,000  Level Houston Center
14:36 31.4306 -90.0219 296° West 155 178 22,000  Level Houston Center
14:37 31.4542 -90.0775 296° West 157 181 22,000  Level Houston Center
14:38 31.4744 -90.1239 297° West 158 182 22,000  Level Houston Center
14:39 31.4939 -90.1706 296° West 159 183 22,000  Level Houston Center
14:40 31.5144 -90.2172 297° West 159 183 22,000  Level Houston Center
14:41 31.5353 -90.2639 298° West 161 185 22,000  Level Houston Center
14:42 31.5583 -90.3200 296° West 161 185 22,000  Level Houston Center
14:43 31.5789 -90.3658 298° West 160 184 22,000  Level Houston Center
14:44 31.5981 -90.4131 295° West 160 184 22,000  Level Houston Center
14:45 31.6183 -90.4600 297° West 160 184 22,000  Level Houston Center
14:47 31.6383 -90.5061 297° West 160 184 22,000  Level Houston Center
14:48 31.6569 -90.5525 295° West 159 183 22,000  Level Houston Center
14:49 31.6806 -90.6078 297° West 159 183 22,000  Level Houston Center
14:50 31.7003 -90.6539 297° West 159 183 22,000  Level Houston Center
14:51 31.7203 -90.6992 297° West 158 182 22,000  Level Houston Center
14:52 31.7392 -90.7456 296° West 158 182 22,000  Level Houston Center
14:53 31.7586 -90.7922 296° West 158 182 22,000  Level Houston Center
14:54 31.7822 -90.8492 296° West 161 185 22,000  Level Houston Center
14:55 31.8031 -90.8958 298° West 161 185 22,000  Level Houston Center
14:56 31.8219 -90.9411 296° West 161 185 22,000  Level Houston Center
14:57 31.8417 -90.9892 296° West 161 185 22,000  Level Houston Center
14:58 31.8650 -91.0450 296° West 161 185 22,000  Level Houston Center
14:59 31.8844 -91.0922 296° West 160 184 22,000  Level Houston Center
15:00 31.9058 -91.1406 298° West 162 186 22,000  Level Houston Center
15:01 31.9247 -91.1875 295° West 161 185 22,000  Level Houston Center
15:02 31.9442 -91.2342 296° West 161 185 22,000  Level Houston Center
15:03 31.9636 -91.2803 296° West 160 184 22,000  Level Houston Center
15:04 31.9878 -91.3383 296° West 160 184 22,000  Level Houston Center
15:05 32.0064 -91.3839 296° West 158 182 22,000  Level Houston Center
15:06 32.0256 -91.4314 295° West 160 184 22,000  Level Houston Center
15:07 32.0453 -91.4775 297° West 158 182 22,000  Level Houston Center
15:08 32.0642 -91.5225 296° West 157 181 22,000  Level Houston Center
15:09 32.0856 -91.5767 295° West 156 180 22,000  Level Houston Center
15:10 32.0942 -91.6236 282° West 147 169 22,000  Level Houston Center
15:11 32.1031 -91.6717 282° West 147 169 22,000  Level Houston Center
15:12 32.1108 -91.7183 281° West 147 169 22,000  Level Houston Center
15:13 32.1194 -91.7678 282° West 149 171 22,000  Level Houston Center
15:15 32.1306 -91.8247 283° West 149 171 22,000  Level Houston Center
15:16 32.1397 -91.8728 283° West 149 171 22,000  Level Houston Center
15:17 32.1486 -91.9208 282° West 149 171 22,000 180 Level Houston Center
15:18 32.1569 -91.9644 283° West 139 160 22,400 420 Climbing Houston Center
15:19 32.1658 -92.0042 285° West 129 148 22,900 420 Climbing Houston Center
15:20 32.1753 -92.0514 283° West 128 147 23,300 360 Climbing Houston Center
15:21 32.1817 -92.0928 280° West 126 145 23,700 300 Climbing Houston Center
15:22 32.1900 -92.1369 283° West 133 153 24,000 120 Climbing Houston Center
15:23 32.1972 -92.1822 281° West 137 158 24,000  Level Houston Center
15:24 32.2133 -92.2608 284° West 149 171 24,000  Level Fort Worth Center
15:25 32.2214 -92.3111 281° West 154 177 24,000  Level Fort Worth Center
15:27 32.2344 -92.3722 284° West 157 181 24,000  Level Fort Worth Center
15:28 32.2542 -92.4222 295° West 165 190 24,000  Level Fort Worth Center
15:29 32.2844 -92.4669 309° West 171 197 24,000  Level Fort Worth Center
15:30 32.3144 -92.5106 309° West 172 198 24,000  Level Fort Worth Center
15:31 32.3447 -92.5547 309° West 172 198 24,000  Level Fort Worth Center
15:32 32.3808 -92.6081 309° West 172 198 24,000  Level Fort Worth Center
15:33 32.4078 -92.6450 311° West 172 198 24,000  Level Fort Worth Center
15:34 32.4431 -92.6997 307° West 173 199 24,000  Level Fort Worth Center
15:35 32.4756 -92.7425 312° West 173 199 24,000  Level Fort Worth Center
15:36 32.5106 -92.7819 316° Northwest 174 200 24,000  Level Fort Worth Center
15:37 32.5475 -92.8211 318° Northwest 174 200 24,000  Level Fort Worth Center
15:38 32.5847 -92.8600 319° Northwest 178 205 24,000  Level Fort Worth Center
15:39 32.6203 -92.9017 315° West 178 205 24,000  Level Fort Worth Center
15:40 32.6631 -92.9461 319° Northwest 177 204 24,000  Level Fort Worth Center
15:41 32.6975 -92.9833 318° Northwest 171 197 24,000  Level Fort Worth Center
15:42 32.7331 -93.0200 319° Northwest 169 194 24,000  Level Fort Worth Center
15:43 32.7708 -93.0603 318° Northwest 170 196 24,000  Level Fort Worth Center
15:44 32.8053 -93.0947 320° Northwest 170 196 24,000 -180 Level Fort Worth Center
15:45 32.8436 -93.1317 321° Northwest 174 200 23,700 -540 Descending Fort Worth Center
15:46 32.8933 -93.1825 319° Northwest 198 228 23,000 -660 Descending Fort Worth Center
15:47 32.9325 -93.2261 317° Northwest 197 227 22,400 -540 Descending Fort Worth Center
15:48 32.9558 -93.2783 298° West 179 206 22,000 -240 Descending Fort Worth Center
15:49 32.9981 -93.3158 323° Northwest 185 213 22,000  Level Fort Worth Center
15:50 33.0375 -93.3500 324° Northwest 178 205 22,000  Level Fort Worth Center
15:51 33.0819 -93.3925 321° Northwest 173 199 22,000  Level Fort Worth Center
15:52 33.0736 -93.4208 251° West 165 190 22,000  Level Fort Worth Center
15:53 33.0481 -93.3597 117° Southeast 219 252 22,000  Level Fort Worth Center
15:54 33.0253 -93.2919 112° Southeast 221 254 22,000  Level Fort Worth Center
15:56 32.9936 -93.2331 123° Southeast 213 245 22,000 240 Level Fort Worth Center
15:57 32.9675 -93.1706 116° Southeast 210 242 22,500 300 Climbing Fort Worth Center
15:58 32.9375 -93.1047 118° Southeast 192 221 22,700 240 Climbing Fort Worth Center
15:59 32.9217 -93.0386 106° East 208 239 23,000 120 Climbing Fort Worth Center
16:00 32.9039 -92.9656 106° East 226 260 23,000  Level Fort Worth Center
16:01 32.8831 -92.8806 106° East 241 277 23,000  Level Fort Worth Center
16:02 32.8650 -92.8094 107° East 249 287 23,000  Level Fort Worth Center
16:03 32.8431 -92.7306 108° East 251 289 23,000  Level Fort Worth Center
16:04 32.8208 -92.6333 105° East 252 290 23,000  Level Fort Worth Center
16:05 32.8036 -92.5519 104° East 252 290 23,000  Level Fort Worth Center
16:06 32.7792 -92.4753 111° Southeast 248 285 23,000  Level Fort Worth Center
16:07 32.7475 -92.4078 119° Southeast 235 270 23,000  Level Fort Worth Center
16:08 32.7147 -92.3397 120° Southeast 235 270 23,000  Level Fort Worth Center
16:09 32.6761 -92.2589 120° Southeast 236 272 23,000  Level Fort Worth Center
16:10 32.6475 -92.1944 118° Southeast 232 267 23,000 360 Level Fort Worth Center
16:11 32.6181 -92.1353 121° Southeast 217 250 23,800 480 Climbing Fort Worth Center
16:13 32.5706 -92.0353 119° Southeast 211 243 24,400 420 Climbing Memphis Center
16:13 32.5494 -91.9881 118° Southeast 212 244 24,800 360 Climbing Fort Worth Center
16:14 32.5183 -91.9236 120° Southeast 218 251 25,000 60 Climbing Fort Worth Center
16:15 32.4861 -91.8547 119° Southeast 229 264 25,000  Level Fort Worth Center
16:16 32.4531 -91.7853 119° Southeast 235 270 25,000  Level Fort Worth Center
16:17 32.4197 -91.7142 119° Southeast 240 276 25,000  Level Fort Worth Center
16:18 32.3856 -91.6425 119° Southeast 245 282 25,000  Level Fort Worth Center
16:20 32.3442 -91.5569 120° Southeast 245 282 25,000  Level Fort Worth Center
16:21 32.3106 -91.4858 119° Southeast 247 284 25,000  Level Fort Worth Center
16:22 32.2772 -91.4175 120° Southeast 249 287 25,000  Level Houston Center
16:23 32.2356 -91.3328 120° Southeast 249 287 25,000  Level Houston Center
16:24 32.2019 -91.2614 119° Southeast 249 287 25,000  Level Houston Center
16:25 32.1678 -91.1900 119° Southeast 249 287 25,000  Level Houston Center
16:26 32.1331 -91.1192 120° Southeast 250 288 25,000  Level Houston Center
16:27 32.0997 -91.0481 119° Southeast 249 287 25,000  Level Houston Center
16:28 32.0647 -90.9775 120° Southeast 250 288 25,000  Level Houston Center
16:29 32.0231 -90.8917 120° Southeast 250 288 25,000  Level Houston Center
16:30 31.9886 -90.8208 120° Southeast 250 288 25,000  Level Houston Center
16:31 31.9531 -90.7472 120° Southeast 250 288 25,000  Level Houston Center
16:32 31.9186 -90.6764 120° Southeast 250 288 25,000  Level Houston Center
16:33 31.8844 -90.6067 120° Southeast 249 287 25,000  Level Houston Center
16:34 31.8508 -90.5378 120° Southeast 247 284 25,000  Level Houston Center
16:35 31.8169 -90.4678 120° Southeast 247 284 25,000  Level Houston Center
16:36 31.7756 -90.3850 120° Southeast 246 283 25,000  Level Houston Center
16:37 31.7411 -90.3153 120° Southeast 245 282 25,000  Level Houston Center
16:38 31.7069 -90.2475 121° Southeast 244 281 25,000  Level Houston Center
16:39 31.6736 -90.1781 119° Southeast 244 281 25,000  Level Houston Center
16:40 31.6392 -90.1083 120° Southeast 245 282 25,000  Level Houston Center
16:41 31.5972 -90.0250 121° Southeast 246 283 25,000  Level Houston Center
16:42 31.5619 -89.9542 120° Southeast 249 287 25,000  Level Houston Center
16:43 31.5333 -89.8817 115° Southeast 249 287 25,000  Level Houston Center
16:44 31.5225 -89.7992 99° East 257 296 25,000 -180 Level Houston Center
16:46 31.5108 -89.7158 99° East 257 296 24,700 -480 Descending Houston Center
16:47 31.4975 -89.6289 100° East 266 306 24,100 -600 Descending Houston Center
16:48 31.4828 -89.5339 100° East 274 315 23,500 -720 Descending Houston Center
16:49 31.4697 -89.4433 100° East 278 320 22,700 -900 Descending Houston Center
16:50 31.4553 -89.3331 99° East 284 327 21,700 -900 Descending Houston Center
16:51 31.4425 -89.2408 99° East 285 328 20,900 -780 Descending Houston Center
16:52 31.4300 -89.1486 99° East 285 328 20,100 -780 Descending Houston Center
16:53 31.4175 -89.0592 99° East 284 327 19,300 -780 Descending Houston Center
16:54 31.3853 -88.9833 116° Southeast 263 303 18,500 -780 Descending Houston Center
16:55 31.3331 -88.9300 139° Southeast 251 289 17,700 -900 Descending Houston Center
16:56 31.2736 -88.8653 137° Southeast 248 285 16,700 -960 Descending Houston Center
16:57 31.2239 -88.8117 137° Southeast 247 284 15,700 -960 Descending Houston Center
16:58 31.1753 -88.7594 137° Southeast 243 280 14,700 -1,020 Descending Houston Center
16:59 31.1267 -88.7064 137° Southeast 241 277 13,700 -960 Descending Houston Center
17:00 31.0800 -88.6564 137° Southeast 234 269 12,800 -960 Descending Houston Center
17:01 31.0256 -88.5983 138° Southeast 225 259 11,800 -900 Descending Houston Center
17:02 30.9828 -88.5525 137° Southeast 215 247 11,000 -780 Descending Houston Center
17:03 30.9417 -88.5081 137° Southeast 208 239 10,200 -660 Descending Houston Center
17:04 30.9025 -88.4644 136° Southeast 202 232 9,700 -600 Descending Houston Center
17:05 30.8631 -88.4700 187° South 186 214 9,000 -840 Descending Houston Center
17:06 30.8281 -88.5158 228° Southwest 167 192 8,000 -960 Descending Houston Center
17:07 30.8525 -88.5506 309° West 179 206 7,100 -900 Descending Houston Center
17:08 30.8711 -88.4969 68° East 188 216 6,200 -900 Descending Houston Center
17:09 30.8653 -88.4383 97° East 188 216 5,300 -660 Descending Houston Center
17:10 30.8536 -88.3850 104° East 177 204 4,900 -780 Descending Houston Center
17:11 30.8158 -88.3450 138° Southeast 166 191 3,800 -1,020 Descending Houston Center
17:12 30.7803 -88.3144 144° Southeast 163 188 2,900 -960 Descending Houston Center
17:14 30.7469 -88.2911 149° Southeast 152 175 1,800 -1,020 Descending Houston Center
17:15 30.7214 -88.2692 144° Southeast 133 153 800 -720 Descending Houston Center
17:16 30.6961 -88.2483 145° Southeast 119 137 400 -420 Descending Houston Center
17:18 30.6914 -88.2428 139° Southeast  Level Estimated